sensor_id;sensor_type;location;lat;lon;timestamp;P1;durP1;ratioP1;P2;durP2;ratioP2
51525;SDS011;37611;51.794;21.590;2023-08-17T00:02:41;16.50;;;13.10;;
51525;SDS011;37611;51.794;21.590;2023-08-17T00:06:43;14.90;;;12.90;;
51525;SDS011;37611;51.794;21.590;2023-08-17T00:10:44;15.00;;;12.70;;
51525;SDS011;37611;51.794;21.590;2023-08-17T00:14:46;14.40;;;12.20;;
51525;SDS011;37611;51.794;21.590;2023-08-17T00:18:48;15.30;;;13.70;;
51525;SDS011;37611;51.794;21.590;2023-08-17T00:22:50;15.20;;;13.70;;
51525;SDS011;37611;51.794;21.590;2023-08-17T00:26:52;16.60;;;14.40;;
51525;SDS011;37611;51.794;21.590;2023-08-17T00:30:54;17.30;;;14.50;;
51525;SDS011;37611;51.794;21.590;2023-08-17T00:34:56;21.20;;;15.40;;
51525;SDS011;37611;51.794;21.590;2023-08-17T00:38:57;19.30;;;13.50;;
51525;SDS011;37611;51.794;21.590;2023-08-17T00:42:59;15.80;;;13.00;;
51525;SDS011;37611;51.794;21.590;2023-08-17T00:47:01;16.20;;;12.30;;
51525;SDS011;37611;51.794;21.590;2023-08-17T00:51:03;16.60;;;12.80;;
51525;SDS011;37611;51.794;21.590;2023-08-17T00:55:07;17.50;;;12.70;;
51525;SDS011;37611;51.794;21.590;2023-08-17T00:59:10;23.00;;;14.70;;
51525;SDS011;37611;51.794;21.590;2023-08-17T01:03:12;27.90;;;15.50;;
51525;SDS011;37611;51.794;21.590;2023-08-17T01:07:13;24.50;;;14.00;;
51525;SDS011;37611;51.794;21.590;2023-08-17T01:15:46;16.80;;;12.30;;
51525;SDS011;37611;51.794;21.590;2023-08-17T01:19:53;14.10;;;11.00;;
51525;SDS011;37611;51.794;21.590;2023-08-17T01:23:57;11.40;;;9.30;;
51525;SDS011;37611;51.794;21.590;2023-08-17T01:28:03;10.60;;;8.90;;
51525;SDS011;37611;51.794;21.590;2023-08-17T01:32:27;10.00;;;8.30;;
51525;SDS011;37611;51.794;21.590;2023-08-17T01:36:37;9.50;;;8.50;;
51525;SDS011;37611;51.794;21.590;2023-08-17T01:40:47;16.20;;;10.20;;
51525;SDS011;37611;51.794;21.590;2023-08-17T01:44:51;13.40;;;10.40;;
51525;SDS011;37611;51.794;21.590;2023-08-17T01:48:53;11.30;;;10.20;;
51525;SDS011;37611;51.794;21.590;2023-08-17T01:52:56;10.30;;;9.30;;
51525;SDS011;37611;51.794;21.590;2023-08-17T01:56:58;10.00;;;9.00;;
51525;SDS011;37611;51.794;21.590;2023-08-17T02:01:00;13.90;;;9.10;;
51525;SDS011;37611;51.794;21.590;2023-08-17T02:05:02;12.20;;;8.60;;
51525;SDS011;37611;51.794;21.590;2023-08-17T02:09:04;11.40;;;8.50;;
51525;SDS011;37611;51.794;21.590;2023-08-17T02:13:06;9.80;;;7.60;;
51525;SDS011;37611;51.794;21.590;2023-08-17T02:17:08;11.30;;;7.80;;
51525;SDS011;37611;51.794;21.590;2023-08-17T02:21:10;9.80;;;8.30;;
51525;SDS011;37611;51.794;21.590;2023-08-17T02:25:12;8.40;;;7.00;;
51525;SDS011;37611;51.794;21.590;2023-08-17T02:29:13;9.70;;;7.60;;
51525;SDS011;37611;51.794;21.590;2023-08-17T02:33:15;10.60;;;9.10;;
51525;SDS011;37611;51.794;21.590;2023-08-17T02:37:17;9.40;;;8.50;;
51525;SDS011;37611;51.794;21.590;2023-08-17T02:41:19;11.30;;;8.00;;
51525;SDS011;37611;51.794;21.590;2023-08-17T02:45:20;9.90;;;8.30;;
51525;SDS011;37611;51.794;21.590;2023-08-17T02:49:22;12.50;;;9.40;;
51525;SDS011;37611;51.794;21.590;2023-08-17T02:53:24;10.80;;;9.70;;
51525;SDS011;37611;51.794;21.590;2023-08-17T02:57:26;11.20;;;9.60;;
51525;SDS011;37611;51.794;21.590;2023-08-17T03:01:27;10.80;;;9.70;;
51525;SDS011;37611;51.794;21.590;2023-08-17T03:05:30;16.20;;;10.20;;
51525;SDS011;37611;51.794;21.590;2023-08-17T03:09:32;12.10;;;10.80;;
51525;SDS011;37611;51.794;21.590;2023-08-17T03:13:34;15.20;;;9.80;;
51525;SDS011;37611;51.794;21.590;2023-08-17T03:17:36;14.10;;;10.20;;
51525;SDS011;37611;51.794;21.590;2023-08-17T03:21:37;13.30;;;10.60;;
51525;SDS011;37611;51.794;21.590;2023-08-17T03:25:39;13.50;;;10.50;;
51525;SDS011;37611;51.794;21.590;2023-08-17T03:29:41;14.10;;;10.60;;
51525;SDS011;37611;51.794;21.590;2023-08-17T03:33:43;14.70;;;10.70;;
51525;SDS011;37611;51.794;21.590;2023-08-17T03:37:44;12.70;;;10.60;;
51525;SDS011;37611;51.794;21.590;2023-08-17T03:41:46;11.60;;;10.10;;
51525;SDS011;37611;51.794;21.590;2023-08-17T03:45:48;14.80;;;10.30;;
51525;SDS011;37611;51.794;21.590;2023-08-17T03:49:51;17.20;;;11.30;;
51525;SDS011;37611;51.794;21.590;2023-08-17T03:53:53;20.00;;;11.10;;
51525;SDS011;37611;51.794;21.590;2023-08-17T03:57:55;14.20;;;9.90;;
51525;SDS011;37611;51.794;21.590;2023-08-17T04:01:56;14.10;;;11.00;;
51525;SDS011;37611;51.794;21.590;2023-08-17T04:06:03;12.20;;;10.90;;
51525;SDS011;37611;51.794;21.590;2023-08-17T04:10:06;12.80;;;11.50;;
51525;SDS011;37611;51.794;21.590;2023-08-17T04:14:08;14.90;;;11.30;;
51525;SDS011;37611;51.794;21.590;2023-08-17T04:18:10;12.20;;;10.80;;
51525;SDS011;37611;51.794;21.590;2023-08-17T04:22:11;14.20;;;11.20;;
51525;SDS011;37611;51.794;21.590;2023-08-17T04:26:13;12.40;;;10.40;;
51525;SDS011;37611;51.794;21.590;2023-08-17T04:30:15;11.40;;;9.50;;
51525;SDS011;37611;51.794;21.590;2023-08-17T04:34:16;11.40;;;10.30;;
51525;SDS011;37611;51.794;21.590;2023-08-17T04:38:18;11.20;;;10.10;;
51525;SDS011;37611;51.794;21.590;2023-08-17T04:42:20;12.10;;;10.10;;
51525;SDS011;37611;51.794;21.590;2023-08-17T04:46:21;11.80;;;9.40;;
51525;SDS011;37611;51.794;21.590;2023-08-17T04:50:23;12.10;;;9.50;;
51525;SDS011;37611;51.794;21.590;2023-08-17T04:54:25;12.50;;;9.50;;
51525;SDS011;37611;51.794;21.590;2023-08-17T04:58:26;13.70;;;9.30;;
51525;SDS011;37611;51.794;21.590;2023-08-17T05:02:28;13.20;;;8.50;;
51525;SDS011;37611;51.794;21.590;2023-08-17T05:06:30;9.70;;;8.70;;
51525;SDS011;37611;51.794;21.590;2023-08-17T05:10:32;11.90;;;8.60;;
51525;SDS011;37611;51.794;21.590;2023-08-17T05:14:34;8.80;;;7.90;;
51525;SDS011;37611;51.794;21.590;2023-08-17T05:18:35;9.80;;;8.50;;
51525;SDS011;37611;51.794;21.590;2023-08-17T05:22:37;14.70;;;9.00;;
51525;SDS011;37611;51.794;21.590;2023-08-17T05:26:39;11.70;;;9.00;;
51525;SDS011;37611;51.794;21.590;2023-08-17T05:30:40;11.30;;;8.70;;
51525;SDS011;37611;51.794;21.590;2023-08-17T05:34:42;12.70;;;9.40;;
51525;SDS011;37611;51.794;21.590;2023-08-17T05:38:43;10.30;;;8.10;;
51525;SDS011;37611;51.794;21.590;2023-08-17T05:42:45;9.50;;;8.50;;
51525;SDS011;37611;51.794;21.590;2023-08-17T05:46:47;10.30;;;8.00;;
51525;SDS011;37611;51.794;21.590;2023-08-17T05:50:49;11.50;;;8.70;;
51525;SDS011;37611;51.794;21.590;2023-08-17T05:54:51;10.30;;;7.70;;
51525;SDS011;37611;51.794;21.590;2023-08-17T05:58:53;9.40;;;7.70;;
51525;SDS011;37611;51.794;21.590;2023-08-17T06:02:55;10.50;;;8.50;;
51525;SDS011;37611;51.794;21.590;2023-08-17T06:07:02;10.30;;;8.90;;
51525;SDS011;37611;51.794;21.590;2023-08-17T06:11:04;10.60;;;8.10;;
51525;SDS011;37611;51.794;21.590;2023-08-17T06:15:06;13.90;;;9.10;;
51525;SDS011;37611;51.794;21.590;2023-08-17T06:19:08;10.70;;;8.50;;
51525;SDS011;37611;51.794;21.590;2023-08-17T06:23:09;9.70;;;8.10;;
51525;SDS011;37611;51.794;21.590;2023-08-17T06:27:13;8.50;;;7.70;;
51525;SDS011;37611;51.794;21.590;2023-08-17T06:31:16;9.30;;;8.00;;
51525;SDS011;37611;51.794;21.590;2023-08-17T06:35:18;9.80;;;8.80;;
51525;SDS011;37611;51.794;21.590;2023-08-17T06:39:20;10.60;;;8.90;;
51525;SDS011;37611;51.794;21.590;2023-08-17T06:43:22;10.70;;;8.80;;
51525;SDS011;37611;51.794;21.590;2023-08-17T06:47:23;11.70;;;8.40;;
51525;SDS011;37611;51.794;21.590;2023-08-17T06:51:25;11.80;;;8.00;;
51525;SDS011;37611;51.794;21.590;2023-08-17T06:55:27;11.40;;;8.40;;
51525;SDS011;37611;51.794;21.590;2023-08-17T06:59:28;12.70;;;8.30;;
51525;SDS011;37611;51.794;21.590;2023-08-17T07:03:30;12.20;;;8.10;;
51525;SDS011;37611;51.794;21.590;2023-08-17T07:07:31;12.60;;;7.80;;
51525;SDS011;37611;51.794;21.590;2023-08-17T07:11:34;11.30;;;7.60;;
51525;SDS011;37611;51.794;21.590;2023-08-17T07:15:36;8.80;;;7.50;;
51525;SDS011;37611;51.794;21.590;2023-08-17T07:19:37;8.20;;;7.40;;
51525;SDS011;37611;51.794;21.590;2023-08-17T07:23:39;9.90;;;7.90;;
51525;SDS011;37611;51.794;21.590;2023-08-17T07:27:45;8.20;;;7.30;;
51525;SDS011;37611;51.794;21.590;2023-08-17T07:31:46;9.30;;;6.90;;
51525;SDS011;37611;51.794;21.590;2023-08-17T07:35:48;12.90;;;7.00;;
51525;SDS011;37611;51.794;21.590;2023-08-17T07:39:50;8.60;;;6.20;;
51525;SDS011;37611;51.794;21.590;2023-08-17T07:43:52;9.40;;;6.10;;
51525;SDS011;37611;51.794;21.590;2023-08-17T07:47:53;6.80;;;5.90;;
51525;SDS011;37611;51.794;21.590;2023-08-17T07:51:55;7.10;;;6.30;;
51525;SDS011;37611;51.794;21.590;2023-08-17T07:55:57;9.20;;;6.70;;
51525;SDS011;37611;51.794;21.590;2023-08-17T07:59:59;10.00;;;6.20;;
51525;SDS011;37611;51.794;21.590;2023-08-17T08:04:01;11.00;;;6.10;;
51525;SDS011;37611;51.794;21.590;2023-08-17T08:08:03;7.80;;;6.00;;
51525;SDS011;37611;51.794;21.590;2023-08-17T08:12:05;10.00;;;6.20;;
51525;SDS011;37611;51.794;21.590;2023-08-17T08:16:09;7.70;;;6.00;;
51525;SDS011;37611;51.794;21.590;2023-08-17T08:20:11;7.40;;;6.10;;
51525;SDS011;37611;51.794;21.590;2023-08-17T08:24:12;7.10;;;5.40;;
51525;SDS011;37611;51.794;21.590;2023-08-17T08:28:14;5.80;;;5.30;;
51525;SDS011;37611;51.794;21.590;2023-08-17T08:32:16;6.70;;;5.80;;
51525;SDS011;37611;51.794;21.590;2023-08-17T08:36:18;7.20;;;5.30;;
51525;SDS011;37611;51.794;21.590;2023-08-17T08:40:20;7.50;;;5.50;;
51525;SDS011;37611;51.794;21.590;2023-08-17T08:44:33;6.50;;;5.20;;
51525;SDS011;37611;51.794;21.590;2023-08-17T08:48:36;5.90;;;5.20;;
51525;SDS011;37611;51.794;21.590;2023-08-17T08:52:53;8.60;;;4.80;;
51525;SDS011;37611;51.794;21.590;2023-08-17T08:57:03;8.60;;;5.10;;
51525;SDS011;37611;51.794;21.590;2023-08-17T09:01:11;7.20;;;6.00;;
51525;SDS011;37611;51.794;21.590;2023-08-17T09:05:22;5.70;;;5.10;;
51525;SDS011;37611;51.794;21.590;2023-08-17T09:09:25;6.00;;;5.00;;
51525;SDS011;37611;51.794;21.590;2023-08-17T09:13:28;12.30;;;5.00;;
51525;SDS011;37611;51.794;21.590;2023-08-17T09:17:31;8.30;;;4.80;;
51525;SDS011;37611;51.794;21.590;2023-08-17T09:21:35;6.20;;;4.40;;
51525;SDS011;37611;51.794;21.590;2023-08-17T09:25:38;5.50;;;4.70;;
51525;SDS011;37611;51.794;21.590;2023-08-17T09:29:43;5.90;;;4.50;;
51525;SDS011;37611;51.794;21.590;2023-08-17T09:33:50;5.20;;;3.90;;
51525;SDS011;37611;51.794;21.590;2023-08-17T09:37:53;6.60;;;4.30;;
51525;SDS011;37611;51.794;21.590;2023-08-17T09:41:54;7.80;;;4.50;;
51525;SDS011;37611;51.794;21.590;2023-08-17T09:45:56;4.60;;;2.70;;
51525;SDS011;37611;51.794;21.590;2023-08-17T09:49:58;3.70;;;3.10;;
51525;SDS011;37611;51.794;21.590;2023-08-17T09:54:00;9.90;;;3.60;;
51525;SDS011;37611;51.794;21.590;2023-08-17T09:58:02;4.60;;;3.00;;
51525;SDS011;37611;51.794;21.590;2023-08-17T10:02:04;5.40;;;3.10;;
51525;SDS011;37611;51.794;21.590;2023-08-17T10:06:22;5.00;;;3.00;;
51525;SDS011;37611;51.794;21.590;2023-08-17T10:10:26;6.60;;;3.50;;
51525;SDS011;37611;51.794;21.590;2023-08-17T10:14:29;4.10;;;2.80;;
51525;SDS011;37611;51.794;21.590;2023-08-17T10:18:41;6.50;;;2.70;;
51525;SDS011;37611;51.794;21.590;2023-08-17T10:23:08;4.50;;;2.80;;
51525;SDS011;37611;51.794;21.590;2023-08-17T10:27:16;5.80;;;2.80;;
51525;SDS011;37611;51.794;21.590;2023-08-17T10:31:21;3.70;;;2.60;;
51525;SDS011;37611;51.794;21.590;2023-08-17T10:35:23;5.70;;;2.60;;
51525;SDS011;37611;51.794;21.590;2023-08-17T10:39:27;3.70;;;2.50;;
51525;SDS011;37611;51.794;21.590;2023-08-17T10:43:33;3.90;;;2.40;;
51525;SDS011;37611;51.794;21.590;2023-08-17T10:47:36;3.70;;;2.50;;
51525;SDS011;37611;51.794;21.590;2023-08-17T10:51:38;3.90;;;2.90;;
51525;SDS011;37611;51.794;21.590;2023-08-17T10:55:42;5.10;;;3.10;;
51525;SDS011;37611;51.794;21.590;2023-08-17T11:00:04;5.60;;;3.00;;
51525;SDS011;37611;51.794;21.590;2023-08-17T11:04:15;4.50;;;3.80;;
51525;SDS011;37611;51.794;21.590;2023-08-17T11:08:31;4.20;;;3.40;;
51525;SDS011;37611;51.794;21.590;2023-08-17T11:12:35;7.40;;;3.30;;
51525;SDS011;37611;51.794;21.590;2023-08-17T11:16:37;7.20;;;3.80;;
51525;SDS011;37611;51.794;21.590;2023-08-17T11:20:41;5.30;;;2.60;;
51525;SDS011;37611;51.794;21.590;2023-08-17T11:24:44;5.40;;;3.00;;
51525;SDS011;37611;51.794;21.590;2023-08-17T11:28:45;9.00;;;3.90;;
51525;SDS011;37611;51.794;21.590;2023-08-17T11:32:52;15.70;;;5.30;;
51525;SDS011;37611;51.794;21.590;2023-08-17T11:36:56;8.60;;;3.60;;
51525;SDS011;37611;51.794;21.590;2023-08-17T11:40:59;3.80;;;3.40;;
51525;SDS011;37611;51.794;21.590;2023-08-17T11:45:01;5.80;;;3.50;;
51525;SDS011;37611;51.794;21.590;2023-08-17T11:49:04;6.00;;;3.60;;
51525;SDS011;37611;51.794;21.590;2023-08-17T11:53:06;14.20;;;3.90;;
51525;SDS011;37611;51.794;21.590;2023-08-17T11:57:08;3.60;;;3.00;;
51525;SDS011;37611;51.794;21.590;2023-08-17T12:01:11;7.40;;;2.80;;
51525;SDS011;37611;51.794;21.590;2023-08-17T12:05:13;5.50;;;3.10;;
51525;SDS011;37611;51.794;21.590;2023-08-17T12:09:21;4.60;;;3.20;;
51525;SDS011;37611;51.794;21.590;2023-08-17T12:13:32;7.20;;;3.30;;
51525;SDS011;37611;51.794;21.590;2023-08-17T12:17:35;4.70;;;3.20;;
51525;SDS011;37611;51.794;21.590;2023-08-17T12:21:40;6.60;;;3.20;;
51525;SDS011;37611;51.794;21.590;2023-08-17T12:25:43;13.80;;;3.20;;
51525;SDS011;37611;51.794;21.590;2023-08-17T12:29:48;9.30;;;3.10;;
51525;SDS011;37611;51.794;21.590;2023-08-17T12:33:50;7.80;;;2.80;;
51525;SDS011;37611;51.794;21.590;2023-08-17T12:37:52;7.60;;;3.40;;
51525;SDS011;37611;51.794;21.590;2023-08-17T12:41:55;8.30;;;3.40;;
51525;SDS011;37611;51.794;21.590;2023-08-17T12:45:56;9.20;;;3.20;;
51525;SDS011;37611;51.794;21.590;2023-08-17T12:49:58;8.10;;;3.50;;
51525;SDS011;37611;51.794;21.590;2023-08-17T12:54:01;21.60;;;5.10;;
51525;SDS011;37611;51.794;21.590;2023-08-17T12:58:03;12.10;;;4.40;;
51525;SDS011;37611;51.794;21.590;2023-08-17T13:02:06;11.50;;;3.60;;
51525;SDS011;37611;51.794;21.590;2023-08-17T13:06:07;6.70;;;3.10;;
51525;SDS011;37611;51.794;21.590;2023-08-17T13:10:09;6.30;;;3.10;;
51525;SDS011;37611;51.794;21.590;2023-08-17T13:14:11;8.60;;;3.30;;
51525;SDS011;37611;51.794;21.590;2023-08-17T13:18:17;9.30;;;3.70;;
51525;SDS011;37611;51.794;21.590;2023-08-17T13:22:19;4.40;;;3.50;;
51525;SDS011;37611;51.794;21.590;2023-08-17T13:26:23;5.50;;;3.60;;
51525;SDS011;37611;51.794;21.590;2023-08-17T13:30:25;5.70;;;3.70;;
51525;SDS011;37611;51.794;21.590;2023-08-17T13:34:26;7.80;;;3.50;;
51525;SDS011;37611;51.794;21.590;2023-08-17T13:38:28;12.90;;;3.70;;
51525;SDS011;37611;51.794;21.590;2023-08-17T13:42:30;5.40;;;3.50;;
51525;SDS011;37611;51.794;21.590;2023-08-17T13:46:32;4.30;;;3.40;;
51525;SDS011;37611;51.794;21.590;2023-08-17T13:50:34;6.70;;;3.80;;
51525;SDS011;37611;51.794;21.590;2023-08-17T13:54:38;6.00;;;3.70;;
51525;SDS011;37611;51.794;21.590;2023-08-17T13:58:40;7.90;;;3.60;;
51525;SDS011;37611;51.794;21.590;2023-08-17T14:02:42;6.80;;;3.80;;
51525;SDS011;37611;51.794;21.590;2023-08-17T14:06:43;9.00;;;3.20;;
51525;SDS011;37611;51.794;21.590;2023-08-17T14:10:45;5.20;;;4.00;;
51525;SDS011;37611;51.794;21.590;2023-08-17T14:14:47;5.40;;;3.40;;
51525;SDS011;37611;51.794;21.590;2023-08-17T14:18:49;8.20;;;3.70;;
51525;SDS011;37611;51.794;21.590;2023-08-17T14:22:51;7.50;;;3.70;;
51525;SDS011;37611;51.794;21.590;2023-08-17T14:26:52;6.40;;;4.00;;
51525;SDS011;37611;51.794;21.590;2023-08-17T14:30:54;7.50;;;3.50;;
51525;SDS011;37611;51.794;21.590;2023-08-17T14:34:56;7.10;;;3.70;;
51525;SDS011;37611;51.794;21.590;2023-08-17T14:38:58;7.90;;;4.20;;
51525;SDS011;37611;51.794;21.590;2023-08-17T14:42:59;6.20;;;3.60;;
51525;SDS011;37611;51.794;21.590;2023-08-17T14:47:01;11.00;;;4.50;;
51525;SDS011;37611;51.794;21.590;2023-08-17T14:51:02;7.20;;;3.90;;
51525;SDS011;37611;51.794;21.590;2023-08-17T14:55:04;8.30;;;4.20;;
51525;SDS011;37611;51.794;21.590;2023-08-17T14:59:06;6.80;;;4.40;;
51525;SDS011;37611;51.794;21.590;2023-08-17T15:03:08;7.20;;;4.70;;
51525;SDS011;37611;51.794;21.590;2023-08-17T15:07:09;7.60;;;4.70;;
51525;SDS011;37611;51.794;21.590;2023-08-17T15:11:12;9.50;;;5.00;;
51525;SDS011;37611;51.794;21.590;2023-08-17T15:15:14;7.50;;;5.10;;
51525;SDS011;37611;51.794;21.590;2023-08-17T15:19:16;7.30;;;4.90;;
51525;SDS011;37611;51.794;21.590;2023-08-17T15:23:17;7.30;;;4.80;;
51525;SDS011;37611;51.794;21.590;2023-08-17T15:27:19;7.90;;;5.30;;
51525;SDS011;37611;51.794;21.590;2023-08-17T15:31:21;9.30;;;5.50;;
51525;SDS011;37611;51.794;21.590;2023-08-17T15:35:23;6.70;;;5.50;;
51525;SDS011;37611;51.794;21.590;2023-08-17T15:39:25;10.10;;;4.70;;
51525;SDS011;37611;51.794;21.590;2023-08-17T15:43:27;6.90;;;4.90;;
51525;SDS011;37611;51.794;21.590;2023-08-17T15:47:29;7.70;;;5.20;;
51525;SDS011;37611;51.794;21.590;2023-08-17T15:51:31;7.10;;;5.00;;
51525;SDS011;37611;51.794;21.590;2023-08-17T15:55:33;9.30;;;5.10;;
51525;SDS011;37611;51.794;21.590;2023-08-17T15:59:34;7.20;;;5.00;;
51525;SDS011;37611;51.794;21.590;2023-08-17T16:03:37;14.30;;;5.10;;
51525;SDS011;37611;51.794;21.590;2023-08-17T16:07:39;11.60;;;5.80;;
51525;SDS011;37611;51.794;21.590;2023-08-17T16:11:41;15.90;;;7.30;;
51525;SDS011;37611;51.794;21.590;2023-08-17T16:15:42;12.60;;;6.00;;
51525;SDS011;37611;51.794;21.590;2023-08-17T16:19:44;15.30;;;6.40;;
51525;SDS011;37611;51.794;21.590;2023-08-17T16:23:46;10.40;;;5.60;;
51525;SDS011;37611;51.794;21.590;2023-08-17T16:27:48;14.30;;;5.70;;
51525;SDS011;37611;51.794;21.590;2023-08-17T16:31:59;16.10;;;7.30;;
51525;SDS011;37611;51.794;21.590;2023-08-17T16:36:02;23.30;;;14.50;;
51525;SDS011;37611;51.794;21.590;2023-08-17T16:40:04;24.40;;;16.50;;
51525;SDS011;37611;51.794;21.590;2023-08-17T16:44:07;18.20;;;12.20;;
51525;SDS011;37611;51.794;21.590;2023-08-17T16:48:09;15.60;;;10.70;;
51525;SDS011;37611;51.794;21.590;2023-08-17T16:52:13;12.90;;;9.10;;
51525;SDS011;37611;51.794;21.590;2023-08-17T16:56:15;19.90;;;13.20;;
51525;SDS011;37611;51.794;21.590;2023-08-17T17:00:18;15.10;;;11.50;;
51525;SDS011;37611;51.794;21.590;2023-08-17T17:04:20;15.30;;;10.40;;
51525;SDS011;37611;51.794;21.590;2023-08-17T17:08:24;21.80;;;11.90;;
51525;SDS011;37611;51.794;21.590;2023-08-17T17:12:27;27.30;;;15.10;;
51525;SDS011;37611;51.794;21.590;2023-08-17T17:16:30;19.00;;;14.00;;
51525;SDS011;37611;51.794;21.590;2023-08-17T17:20:40;12.10;;;9.30;;
51525;SDS011;37611;51.794;21.590;2023-08-17T17:24:44;11.60;;;8.20;;
51525;SDS011;37611;51.794;21.590;2023-08-17T17:28:47;15.00;;;8.90;;
51525;SDS011;37611;51.794;21.590;2023-08-17T17:32:49;22.10;;;13.20;;
51525;SDS011;37611;51.794;21.590;2023-08-17T17:36:51;29.70;;;14.30;;
51525;SDS011;37611;51.794;21.590;2023-08-17T17:40:53;29.80;;;15.90;;
51525;SDS011;37611;51.794;21.590;2023-08-17T17:44:54;34.00;;;23.50;;
51525;SDS011;37611;51.794;21.590;2023-08-17T17:48:57;32.80;;;23.30;;
51525;SDS011;37611;51.794;21.590;2023-08-17T17:52:59;31.30;;;19.80;;
51525;SDS011;37611;51.794;21.590;2023-08-17T17:57:01;26.00;;;15.00;;
51525;SDS011;37611;51.794;21.590;2023-08-17T18:01:02;13.90;;;10.00;;
51525;SDS011;37611;51.794;21.590;2023-08-17T18:05:04;16.50;;;10.90;;
51525;SDS011;37611;51.794;21.590;2023-08-17T18:09:07;17.20;;;11.60;;
51525;SDS011;37611;51.794;21.590;2023-08-17T18:13:09;16.70;;;11.90;;
51525;SDS011;37611;51.794;21.590;2023-08-17T18:17:11;13.50;;;10.30;;
51525;SDS011;37611;51.794;21.590;2023-08-17T18:21:13;16.00;;;10.60;;
51525;SDS011;37611;51.794;21.590;2023-08-17T18:25:15;15.90;;;12.20;;
51525;SDS011;37611;51.794;21.590;2023-08-17T18:29:16;21.50;;;12.00;;
51525;SDS011;37611;51.794;21.590;2023-08-17T18:33:20;18.50;;;13.20;;
51525;SDS011;37611;51.794;21.590;2023-08-17T18:37:21;15.70;;;10.50;;
51525;SDS011;37611;51.794;21.590;2023-08-17T18:41:23;16.40;;;9.60;;
51525;SDS011;37611;51.794;21.590;2023-08-17T18:45:25;11.30;;;9.00;;
51525;SDS011;37611;51.794;21.590;2023-08-17T18:49:27;14.40;;;9.90;;
51525;SDS011;37611;51.794;21.590;2023-08-17T18:53:28;20.10;;;16.00;;
51525;SDS011;37611;51.794;21.590;2023-08-17T18:57:30;19.90;;;13.30;;
51525;SDS011;37611;51.794;21.590;2023-08-17T19:01:32;19.60;;;13.00;;
51525;SDS011;37611;51.794;21.590;2023-08-17T19:05:33;19.50;;;13.70;;
51525;SDS011;37611;51.794;21.590;2023-08-17T19:09:35;17.30;;;11.90;;
51525;SDS011;37611;51.794;21.590;2023-08-17T19:13:37;15.30;;;12.40;;
51525;SDS011;37611;51.794;21.590;2023-08-17T19:17:39;18.00;;;12.00;;
51525;SDS011;37611;51.794;21.590;2023-08-17T19:21:41;13.60;;;11.80;;
51525;SDS011;37611;51.794;21.590;2023-08-17T19:25:42;13.40;;;11.60;;
51525;SDS011;37611;51.794;21.590;2023-08-17T19:29:44;17.00;;;12.10;;
51525;SDS011;37611;51.794;21.590;2023-08-17T19:33:46;15.50;;;12.90;;
51525;SDS011;37611;51.794;21.590;2023-08-17T19:37:48;20.30;;;12.60;;
51525;SDS011;37611;51.794;21.590;2023-08-17T19:41:52;15.70;;;12.60;;
51525;SDS011;37611;51.794;21.590;2023-08-17T19:45:54;18.00;;;13.40;;
51525;SDS011;37611;51.794;21.590;2023-08-17T19:49:56;16.10;;;13.10;;
51525;SDS011;37611;51.794;21.590;2023-08-17T19:53:58;20.90;;;13.20;;
51525;SDS011;37611;51.794;21.590;2023-08-17T19:58:00;18.20;;;13.70;;
51525;SDS011;37611;51.794;21.590;2023-08-17T20:02:01;29.20;;;15.70;;
51525;SDS011;37611;51.794;21.590;2023-08-17T20:06:04;27.90;;;17.90;;
51525;SDS011;37611;51.794;21.590;2023-08-17T20:10:07;23.50;;;16.50;;
51525;SDS011;37611;51.794;21.590;2023-08-17T20:14:09;23.00;;;14.10;;
51525;SDS011;37611;51.794;21.590;2023-08-17T20:18:11;21.30;;;13.30;;
51525;SDS011;37611;51.794;21.590;2023-08-17T20:22:14;21.40;;;13.20;;
51525;SDS011;37611;51.794;21.590;2023-08-17T20:26:16;19.00;;;12.40;;
51525;SDS011;37611;51.794;21.590;2023-08-17T20:30:18;16.10;;;12.10;;
51525;SDS011;37611;51.794;21.590;2023-08-17T20:34:20;21.60;;;13.00;;
51525;SDS011;37611;51.794;21.590;2023-08-17T20:38:22;18.30;;;12.70;;
51525;SDS011;37611;51.794;21.590;2023-08-17T20:42:24;16.60;;;12.10;;
51525;SDS011;37611;51.794;21.590;2023-08-17T20:46:26;16.50;;;11.30;;
51525;SDS011;37611;51.794;21.590;2023-08-17T20:50:34;14.70;;;12.00;;
51525;SDS011;37611;51.794;21.590;2023-08-17T20:54:37;17.30;;;13.50;;
51525;SDS011;37611;51.794;21.590;2023-08-17T20:58:39;18.90;;;14.40;;
51525;SDS011;37611;51.794;21.590;2023-08-17T21:02:41;19.80;;;14.00;;
51525;SDS011;37611;51.794;21.590;2023-08-17T21:06:43;13.50;;;12.10;;
51525;SDS011;37611;51.794;21.590;2023-08-17T21:10:46;12.60;;;10.00;;
51525;SDS011;37611;51.794;21.590;2023-08-17T21:14:49;16.20;;;11.10;;
51525;SDS011;37611;51.794;21.590;2023-08-17T21:18:51;15.80;;;12.50;;
51525;SDS011;37611;51.794;21.590;2023-08-17T21:22:53;15.70;;;12.40;;
51525;SDS011;37611;51.794;21.590;2023-08-17T21:26:55;24.10;;;14.00;;
51525;SDS011;37611;51.794;21.590;2023-08-17T21:31:00;24.50;;;14.20;;
51525;SDS011;37611;51.794;21.590;2023-08-17T21:35:03;23.80;;;14.60;;
51525;SDS011;37611;51.794;21.590;2023-08-17T21:39:06;19.40;;;13.60;;
51525;SDS011;37611;51.794;21.590;2023-08-17T21:43:08;21.40;;;14.20;;
51525;SDS011;37611;51.794;21.590;2023-08-17T21:47:09;22.10;;;14.30;;
51525;SDS011;37611;51.794;21.590;2023-08-17T21:51:11;20.90;;;13.90;;
51525;SDS011;37611;51.794;21.590;2023-08-17T21:55:13;17.10;;;11.30;;
51525;SDS011;37611;51.794;21.590;2023-08-17T21:59:15;17.50;;;12.70;;
51525;SDS011;37611;51.794;21.590;2023-08-17T22:03:16;17.00;;;11.60;;
51525;SDS011;37611;51.794;21.590;2023-08-17T22:07:19;16.30;;;11.10;;
51525;SDS011;37611;51.794;21.590;2023-08-17T22:11:20;14.50;;;11.50;;
51525;SDS011;37611;51.794;21.590;2023-08-17T22:15:22;17.80;;;13.20;;
51525;SDS011;37611;51.794;21.590;2023-08-17T22:19:25;16.70;;;12.50;;
51525;SDS011;37611;51.794;21.590;2023-08-17T22:23:27;15.80;;;12.80;;
51525;SDS011;37611;51.794;21.590;2023-08-17T22:27:28;19.00;;;13.60;;
51525;SDS011;37611;51.794;21.590;2023-08-17T22:31:30;18.30;;;13.20;;
51525;SDS011;37611;51.794;21.590;2023-08-17T22:35:33;13.20;;;11.70;;
51525;SDS011;37611;51.794;21.590;2023-08-17T22:39:35;15.70;;;12.30;;
51525;SDS011;37611;51.794;21.590;2023-08-17T22:43:37;17.10;;;12.50;;
51525;SDS011;37611;51.794;21.590;2023-08-17T22:47:38;17.20;;;12.40;;
51525;SDS011;37611;51.794;21.590;2023-08-17T22:51:40;19.20;;;12.60;;
51525;SDS011;37611;51.794;21.590;2023-08-17T22:55:42;20.50;;;13.30;;
51525;SDS011;37611;51.794;21.590;2023-08-17T22:59:43;21.10;;;13.20;;
51525;SDS011;37611;51.794;21.590;2023-08-17T23:03:45;22.40;;;14.90;;
51525;SDS011;37611;51.794;21.590;2023-08-17T23:07:47;17.30;;;14.60;;
51525;SDS011;37611;51.794;21.590;2023-08-17T23:11:49;21.80;;;16.90;;
51525;SDS011;37611;51.794;21.590;2023-08-17T23:15:51;23.70;;;19.20;;
51525;SDS011;37611;51.794;21.590;2023-08-17T23:19:53;30.60;;;18.50;;
51525;SDS011;37611;51.794;21.590;2023-08-17T23:23:54;21.30;;;17.60;;
51525;SDS011;37611;51.794;21.590;2023-08-17T23:27:56;20.50;;;14.30;;
51525;SDS011;37611;51.794;21.590;2023-08-17T23:31:58;13.90;;;11.80;;
51525;SDS011;37611;51.794;21.590;2023-08-17T23:36:00;13.60;;;11.60;;
51525;SDS011;37611;51.794;21.590;2023-08-17T23:40:02;13.20;;;11.70;;
51525;SDS011;37611;51.794;21.590;2023-08-17T23:44:05;18.20;;;10.70;;